createdAt,value
2023-03-17T00:00:49.090Z,1.60
2023-03-17T00:03:22.807Z,1.60
2023-03-17T00:05:52.140Z,1.50
2023-03-17T00:08:26.542Z,1.50
2023-03-17T00:11:00.534Z,1.50
2023-03-17T00:13:32.196Z,1.50
2023-03-17T00:16:03.202Z,1.40
2023-03-17T00:18:34.482Z,1.40
2023-03-17T00:21:02.720Z,1.30
2023-03-17T00:23:31.389Z,1.30
2023-03-17T00:26:02.507Z,1.30
2023-03-17T00:28:34.409Z,1.30
2023-03-17T00:31:15.169Z,1.30
2023-03-17T00:33:45.583Z,1.30
2023-03-17T00:36:19.341Z,1.30
2023-03-17T00:38:50.480Z,1.30
2023-03-17T00:41:20.510Z,1.30
2023-03-17T00:43:48.704Z,1.30
2023-03-17T00:46:22.512Z,1.30
2023-03-17T00:48:50.715Z,1.30
2023-03-17T00:51:20.489Z,1.20
2023-03-17T00:53:53.488Z,1.20
2023-03-17T00:56:23.791Z,1.20
2023-03-17T00:58:52.242Z,1.10
2023-03-17T01:01:21.471Z,1.10
2023-03-17T01:03:54.625Z,1.10
2023-03-17T01:06:23.481Z,1.10
2023-03-17T01:08:52.285Z,1.10
2023-03-17T01:11:24.491Z,1.00
2023-03-17T01:13:53.502Z,1.00
2023-03-17T01:16:21.745Z,1.00
2023-03-17T01:18:51.555Z,1.00
2023-03-17T01:21:23.495Z,1.00
2023-03-17T01:23:51.626Z,1.00
2023-03-17T01:26:20.513Z,1.00
2023-03-17T01:28:51.485Z,1.00
2023-03-17T01:31:20.683Z,1.00
2023-03-17T01:33:51.496Z,1.00
2023-03-17T01:36:20.772Z,0.90
2023-03-17T01:38:51.513Z,0.90
2023-03-17T01:41:20.735Z,0.90
2023-03-17T01:43:51.175Z,0.90
2023-03-17T01:46:29.205Z,0.90
2023-03-17T01:49:07.503Z,0.90
2023-03-17T01:51:40.312Z,0.80
2023-03-17T01:54:15.298Z,0.80
2023-03-17T01:56:46.502Z,0.80
2023-03-17T01:59:21.537Z,0.90
2023-03-17T02:01:54.497Z,0.80
2023-03-17T02:04:23.106Z,0.80
2023-03-17T02:06:58.333Z,0.80
2023-03-17T02:09:28.889Z,0.80
2023-03-17T02:12:00.990Z,0.80
2023-03-17T02:14:31.192Z,0.80
2023-03-17T02:17:00.818Z,0.80
2023-03-17T02:19:29.398Z,0.80
2023-03-17T02:22:01.543Z,0.80
2023-03-17T02:24:35.842Z,0.80
2023-03-17T02:27:10.530Z,0.70
2023-03-17T02:29:40.736Z,0.70
2023-03-17T02:32:11.550Z,0.70
2023-03-17T02:34:40.111Z,0.60
2023-03-17T02:37:11.434Z,0.60
2023-03-17T02:39:39.721Z,0.60
2023-03-17T02:42:08.942Z,0.70
2023-03-17T02:44:38.523Z,0.60
2023-03-17T02:47:10.838Z,0.60
2023-03-17T02:49:42.536Z,0.50
2023-03-17T02:52:13.236Z,0.50
2023-03-17T02:54:43.534Z,0.50
2023-03-17T02:57:13.128Z,0.50
2023-03-17T02:59:42.530Z,0.50
2023-03-17T03:02:14.409Z,0.50
2023-03-17T03:04:46.309Z,0.50
2023-03-17T03:07:16.201Z,0.50
2023-03-17T03:09:45.611Z,0.50
2023-03-17T03:12:15.063Z,0.50
2023-03-17T03:14:43.312Z,0.50
2023-03-17T03:17:16.546Z,0.40
2023-03-17T03:19:45.099Z,0.40
2023-03-17T03:22:13.292Z,0.40
2023-03-17T03:24:44.548Z,0.40
2023-03-17T03:27:12.848Z,0.40
2023-03-17T03:29:42.486Z,0.40
2023-03-17T03:32:12.539Z,0.40
2023-03-17T03:34:41.348Z,0.40
2023-03-17T03:37:11.060Z,0.30
2023-03-17T03:39:39.572Z,0.30
2023-03-17T03:42:11.927Z,0.30
2023-03-17T03:44:40.558Z,0.20
2023-03-17T03:47:09.731Z,0.20
2023-03-17T03:49:38.836Z,0.20
2023-03-17T03:52:07.823Z,0.30
2023-03-17T03:54:40.551Z,0.20
2023-03-17T03:57:08.724Z,0.20
2023-03-17T03:59:38.983Z,0.20
2023-03-17T04:02:09.549Z,0.20
2023-03-17T04:04:38.645Z,0.20
2023-03-17T04:07:07.674Z,0.10
2023-03-17T04:09:37.585Z,0.20
2023-03-17T04:12:07.546Z,0.10
2023-03-17T04:14:37.538Z,0.10
2023-03-17T04:17:07.085Z,0.10
2023-03-17T04:19:36.551Z,0.10
2023-03-17T04:22:04.920Z,0.10
2023-03-17T04:24:35.555Z,0.10
2023-03-17T04:27:06.232Z,0.10
2023-03-17T04:29:34.586Z,0.10
2023-03-17T04:32:02.962Z,0.10
2023-03-17T04:34:32.652Z,0.10
2023-03-17T04:37:01.538Z,0.10
2023-03-17T04:39:33.190Z,0.20
2023-03-17T04:42:01.438Z,0.10
2023-03-17T04:44:30.559Z,0.20
2023-03-17T04:46:59.538Z,0.10
2023-03-17T04:49:28.101Z,0.10
2023-03-17T04:51:58.842Z,0.10
2023-03-17T04:54:26.992Z,0.10
2023-03-17T04:56:55.160Z,0.10
2023-03-17T04:59:24.551Z,0.10
2023-03-17T05:01:53.433Z,0.10
2023-03-17T05:04:31.255Z,0.10
2023-03-17T05:07:02.986Z,0.10
2023-03-17T05:09:31.240Z,0.10
2023-03-17T05:11:59.430Z,0.10
2023-03-17T05:14:27.892Z,0.10
2023-03-17T05:16:56.562Z,0.10
2023-03-17T05:19:24.843Z,0.20
2023-03-17T05:21:53.420Z,0.20
2023-03-17T05:24:22.930Z,0.20
2023-03-17T05:26:52.542Z,0.30
2023-03-17T05:29:20.766Z,0.30
2023-03-17T05:31:49.964Z,0.30
2023-03-17T05:34:18.168Z,0.40
2023-03-17T05:36:46.448Z,0.40
2023-03-17T05:39:17.642Z,0.40
2023-03-17T05:41:48.135Z,0.50
2023-03-17T05:44:18.510Z,0.50
2023-03-17T05:46:46.694Z,0.60
2023-03-17T05:49:15.384Z,0.60
2023-03-17T05:51:43.590Z,0.70
2023-03-17T05:54:11.731Z,0.80
2023-03-17T05:56:40.407Z,0.80
2023-03-17T05:59:10.598Z,0.90
2023-03-17T06:01:38.746Z,1.00
2023-03-17T06:04:07.834Z,1.10
2023-03-17T06:06:40.449Z,1.10
2023-03-17T06:09:08.574Z,1.20
2023-03-17T06:11:37.001Z,1.30
2023-03-17T06:14:07.194Z,1.30
2023-03-17T06:16:36.793Z,1.40
2023-03-17T06:19:05.644Z,1.50
2023-03-17T06:21:33.853Z,1.60
2023-03-17T06:24:02.113Z,1.60
2023-03-17T06:26:30.604Z,1.70
2023-03-17T06:29:02.245Z,1.80
2023-03-17T06:31:30.639Z,1.80
2023-03-17T06:34:00.327Z,1.80
2023-03-17T06:36:30.666Z,1.90
2023-03-17T06:38:59.714Z,2.00
2023-03-17T06:41:30.589Z,1.90
2023-03-17T06:43:58.766Z,1.90
2023-03-17T06:46:27.180Z,2.00
2023-03-17T06:48:55.472Z,2.00
2023-03-17T06:51:25.142Z,2.10
2023-03-17T06:53:53.257Z,2.20
2023-03-17T06:56:29.885Z,2.20
2023-03-17T06:58:59.884Z,2.20
2023-03-17T07:01:28.859Z,2.30
2023-03-17T07:03:57.207Z,2.30
2023-03-17T07:06:26.737Z,2.30
2023-03-17T07:09:00.943Z,2.30
2023-03-17T07:11:30.804Z,2.30
2023-03-17T07:13:58.986Z,2.40
2023-03-17T07:16:30.761Z,2.40
2023-03-17T07:19:02.574Z,2.50
2023-03-17T07:21:35.057Z,2.70
2023-03-17T07:24:07.300Z,2.70
2023-03-17T07:26:35.552Z,2.80
2023-03-17T07:29:03.729Z,2.90
2023-03-17T07:31:32.001Z,3.00
2023-03-17T07:34:03.546Z,3.10
2023-03-17T07:36:36.474Z,3.20
2023-03-17T07:39:05.657Z,3.30
2023-03-17T07:41:33.907Z,3.30
2023-03-17T07:44:02.361Z,3.40
2023-03-17T07:46:31.035Z,3.50
2023-03-17T07:48:59.231Z,3.60
2023-03-17T07:51:30.312Z,3.70
2023-03-17T07:54:03.900Z,3.80
2023-03-17T07:56:32.679Z,3.90
2023-03-17T07:59:01.085Z,3.90
2023-03-17T08:01:30.506Z,4.00
2023-03-17T08:03:58.732Z,4.10
2023-03-17T08:06:27.000Z,4.20
2023-03-17T08:08:55.800Z,4.30
2023-03-17T08:11:29.539Z,4.40
2023-03-17T08:14:02.741Z,4.50
2023-03-17T08:16:32.042Z,4.60
2023-03-17T08:19:00.331Z,4.70
2023-03-17T08:21:28.554Z,4.90
2023-03-17T08:23:56.897Z,5.00
2023-03-17T08:26:27.708Z,5.10
2023-03-17T08:28:56.465Z,5.20
2023-03-17T08:31:24.906Z,5.40
2023-03-17T08:33:57.070Z,5.50
2023-03-17T08:36:26.122Z,5.60
2023-03-17T08:38:57.211Z,5.70
2023-03-17T08:41:28.541Z,5.60
2023-03-17T08:44:03.411Z,5.60
2023-03-17T08:46:33.777Z,5.70
2023-03-17T08:49:03.332Z,5.70
2023-03-17T08:51:34.396Z,5.70
2023-03-17T08:54:03.297Z,5.70
2023-03-17T08:56:33.040Z,5.70
2023-03-17T08:59:02.012Z,5.80
2023-03-17T09:01:31.529Z,5.80
2023-03-17T09:04:00.166Z,5.90
2023-03-17T09:06:29.624Z,6.00
2023-03-17T09:08:59.391Z,6.00
2023-03-17T09:11:29.801Z,6.10
2023-03-17T09:13:59.386Z,6.20
2023-03-17T09:16:28.789Z,6.20
2023-03-17T09:18:56.985Z,6.30
2023-03-17T09:21:27.504Z,6.30
2023-03-17T09:23:56.029Z,6.40
2023-03-17T09:26:25.654Z,6.40
2023-03-17T09:28:55.660Z,6.40
2023-03-17T09:31:25.678Z,6.40
2023-03-17T09:33:55.524Z,6.60
2023-03-17T09:36:23.753Z,6.70
2023-03-17T09:38:52.641Z,6.80
2023-03-17T09:41:39.251Z,6.80
2023-03-17T09:44:16.235Z,6.80
2023-03-17T09:46:56.703Z,6.80
2023-03-17T09:49:43.011Z,6.80
2023-03-17T09:52:14.904Z,6.90
2023-03-17T09:54:46.572Z,7.00
2023-03-17T09:57:22.118Z,7.10
2023-03-17T09:59:59.260Z,7.10
2023-03-17T10:02:31.683Z,7.20
2023-03-17T10:05:01.030Z,7.40
2023-03-17T10:07:41.677Z,7.30
2023-03-17T10:10:18.044Z,7.40
2023-03-17T10:12:53.667Z,7.50
2023-03-17T10:15:28.369Z,7.50
2023-03-17T10:17:59.791Z,7.60
2023-03-17T10:20:31.372Z,7.60
2023-03-17T10:23:04.670Z,7.70
2023-03-17T10:25:35.931Z,7.70
2023-03-17T10:28:11.327Z,7.70
2023-03-17T10:30:39.825Z,7.90
2023-03-17T10:33:09.602Z,7.90
2023-03-17T10:35:39.611Z,8.00
2023-03-17T10:38:17.741Z,8.10
2023-03-17T10:40:48.920Z,8.20
2023-03-17T10:43:22.269Z,8.30
2023-03-17T10:46:01.700Z,8.30
2023-03-17T10:48:36.086Z,8.30
2023-03-17T10:51:08.672Z,8.40
2023-03-17T10:53:39.010Z,8.40
2023-03-17T10:56:10.825Z,8.50
2023-03-17T10:58:45.766Z,8.60
2023-03-17T11:01:21.794Z,8.60
2023-03-17T11:03:51.653Z,8.80
2023-03-17T11:06:21.480Z,8.80
2023-03-17T11:08:51.397Z,8.90
2023-03-17T11:11:27.374Z,9.00
2023-03-17T11:14:02.976Z,9.10
2023-03-17T11:16:35.698Z,9.20
2023-03-17T11:19:12.598Z,9.30
2023-03-17T11:21:54.492Z,9.40
2023-03-17T11:24:30.829Z,9.40
2023-03-17T11:27:01.704Z,9.40
2023-03-17T11:29:43.651Z,9.40
2023-03-17T11:32:28.727Z,9.40
2023-03-17T11:35:25.768Z,9.50
2023-03-17T11:38:09.220Z,9.60
2023-03-17T11:40:47.301Z,9.70
2023-03-17T11:43:29.410Z,9.70
2023-03-17T11:46:05.806Z,9.90
2023-03-17T11:48:44.718Z,10.00
2023-03-17T11:51:21.795Z,10.00
2023-03-17T11:54:04.633Z,10.10
2023-03-17T11:56:40.181Z,10.10
2023-03-17T11:59:21.691Z,10.20
2023-03-17T12:01:58.345Z,10.30
2023-03-17T12:04:34.368Z,10.30
2023-03-17T12:07:21.723Z,10.30
2023-03-17T12:09:57.993Z,10.40
2023-03-17T12:12:31.721Z,10.40
2023-03-17T12:15:02.191Z,10.50
2023-03-17T12:17:37.799Z,10.60
2023-03-17T12:20:16.494Z,10.70
2023-03-17T12:22:55.178Z,10.70
2023-03-17T12:25:28.271Z,10.70
2023-03-17T12:28:03.750Z,10.70
2023-03-17T12:30:38.660Z,10.70
2023-03-17T12:33:17.314Z,10.70
2023-03-17T12:35:45.450Z,10.80
2023-03-17T12:38:20.636Z,10.70
2023-03-17T12:41:13.221Z,10.70
2023-03-17T12:43:59.736Z,10.60
2023-03-17T12:46:51.146Z,10.60
2023-03-17T12:49:52.481Z,10.60
2023-03-17T12:52:39.883Z,10.70
2023-03-17T12:55:17.274Z,10.80
2023-03-17T12:57:48.421Z,10.70
2023-03-17T13:00:25.440Z,10.70
2023-03-17T13:03:13.375Z,10.60
2023-03-17T13:05:47.558Z,10.60
2023-03-17T13:08:29.260Z,10.60
2023-03-17T13:11:18.638Z,10.60
2023-03-17T13:13:59.258Z,10.60
2023-03-17T13:16:33.697Z,10.70
2023-03-17T13:19:24.424Z,10.70
2023-03-17T13:22:14.351Z,10.60
2023-03-17T13:24:48.816Z,10.60
2023-03-17T13:27:43.938Z,10.50
2023-03-17T13:30:56.042Z,10.40
2023-03-17T13:33:31.787Z,10.40
2023-03-17T13:36:17.856Z,10.30
2023-03-17T13:39:19.186Z,10.30
2023-03-17T13:42:18.083Z,10.30
2023-03-17T13:45:09.386Z,10.20
2023-03-17T13:47:42.064Z,10.10
2023-03-17T13:50:17.570Z,10.10
2023-03-17T13:52:49.850Z,10.00
2023-03-17T13:55:35.083Z,10.10
2023-03-17T13:58:34.626Z,10.10
2023-03-17T14:01:07.830Z,10.10
2023-03-17T14:03:42.390Z,10.10
2023-03-17T14:06:13.541Z,10.10
2023-03-17T14:08:47.640Z,10.20
2023-03-17T14:11:24.069Z,10.10
2023-03-17T14:14:06.750Z,10.10
2023-03-17T14:16:43.286Z,10.10
2023-03-17T14:19:17.838Z,10.20
2023-03-17T14:21:46.143Z,10.20
2023-03-17T14:24:24.009Z,10.20
2023-03-17T14:26:53.521Z,10.20
2023-03-17T14:29:29.690Z,10.20
2023-03-17T14:32:05.638Z,10.20
2023-03-17T14:34:34.595Z,10.20
2023-03-17T14:37:04.628Z,10.20
2023-03-17T14:39:32.959Z,10.30
2023-03-17T14:42:03.526Z,10.30
2023-03-17T14:44:38.260Z,10.30
2023-03-17T14:47:18.788Z,10.30
2023-03-17T14:49:47.812Z,10.30
2023-03-17T14:52:26.965Z,10.20
2023-03-17T14:54:59.795Z,10.20
2023-03-17T14:57:32.610Z,10.20
2023-03-17T15:00:05.122Z,10.20
2023-03-17T15:02:37.997Z,10.00
2023-03-17T15:05:22.143Z,9.90
2023-03-17T15:07:53.357Z,9.80
2023-03-17T15:10:24.473Z,9.80
2023-03-17T15:13:01.991Z,9.70
2023-03-17T15:15:32.739Z,9.80
2023-03-17T15:18:08.244Z,9.80
2023-03-17T15:20:36.691Z,9.80
2023-03-17T15:23:06.208Z,9.80
2023-03-17T15:25:38.151Z,9.80
2023-03-17T15:28:12.323Z,9.80
2023-03-17T15:30:48.049Z,9.70
2023-03-17T15:33:23.172Z,9.70
2023-03-17T15:35:53.496Z,9.50
2023-03-17T15:38:22.794Z,9.50
2023-03-17T15:40:51.065Z,9.50
2023-03-17T15:43:22.793Z,9.50
2023-03-17T15:45:56.042Z,9.50
2023-03-17T15:48:29.838Z,9.50
2023-03-17T15:51:01.496Z,9.40
2023-03-17T15:53:30.181Z,9.40
2023-03-17T15:55:58.561Z,9.30
2023-03-17T15:58:27.124Z,9.30
2023-03-17T16:00:59.695Z,9.20
2023-03-17T16:03:32.818Z,9.20
2023-03-17T16:06:01.871Z,9.20
2023-03-17T16:08:32.132Z,9.10
2023-03-17T16:11:00.460Z,9.10
2023-03-17T16:13:29.820Z,9.00
2023-03-17T16:15:59.959Z,9.00
2023-03-17T16:18:34.872Z,8.90
2023-03-17T16:21:04.296Z,8.90
2023-03-17T16:23:36.967Z,8.80
2023-03-17T16:26:15.510Z,8.80
2023-03-17T16:28:46.264Z,8.70
2023-03-17T16:31:32.589Z,8.60
2023-03-17T16:34:17.845Z,8.60
2023-03-17T16:36:46.264Z,8.60
2023-03-17T16:39:18.677Z,8.50
2023-03-17T16:41:49.256Z,8.40
2023-03-17T16:44:19.229Z,8.30
2023-03-17T16:46:48.280Z,8.30
2023-03-17T16:49:19.824Z,8.30
2023-03-17T16:51:49.536Z,8.20
2023-03-17T16:54:22.934Z,8.10
2023-03-17T16:56:51.273Z,8.10
2023-03-17T16:59:21.756Z,8.00
2023-03-17T17:01:50.006Z,8.00
2023-03-17T17:04:19.546Z,7.90
2023-03-17T17:06:51.409Z,7.90
2023-03-17T17:09:20.826Z,7.90
2023-03-17T17:11:49.182Z,7.70
2023-03-17T17:14:18.415Z,7.70
2023-03-17T17:16:47.945Z,7.70
2023-03-17T17:19:21.362Z,7.70
2023-03-17T17:21:50.044Z,7.70
2023-03-17T17:24:19.018Z,7.60
2023-03-17T17:26:47.212Z,7.60
2023-03-17T17:29:15.370Z,7.60
2023-03-17T17:31:43.692Z,7.60
2023-03-17T17:34:11.896Z,7.50
2023-03-17T17:36:42.228Z,7.50
2023-03-17T17:39:11.628Z,7.50
2023-03-17T17:41:42.069Z,7.40
2023-03-17T17:44:10.245Z,7.40
2023-03-17T17:46:38.672Z,7.40
2023-03-17T17:49:07.069Z,7.40
2023-03-17T17:51:35.218Z,7.40
2023-03-17T17:54:05.188Z,7.30
2023-03-17T17:56:40.159Z,7.20
2023-03-17T17:59:08.415Z,7.20
2023-03-17T18:01:36.661Z,7.20
2023-03-17T18:04:04.990Z,7.20
2023-03-17T18:06:33.488Z,7.20
2023-03-17T18:09:09.209Z,7.10
2023-03-17T18:11:38.625Z,7.10
2023-03-17T18:14:06.898Z,7.10
2023-03-17T18:16:36.777Z,7.10
2023-03-17T18:19:06.095Z,7.10
2023-03-17T18:21:37.355Z,7.10
2023-03-17T18:24:07.250Z,7.00
2023-03-17T18:26:36.027Z,7.00
2023-03-17T18:29:04.568Z,6.90
2023-03-17T18:31:35.100Z,6.90
2023-03-17T18:34:07.895Z,7.00
2023-03-17T18:36:36.360Z,6.90
2023-03-17T18:39:06.866Z,6.90
2023-03-17T18:41:35.796Z,6.90
2023-03-17T18:44:07.387Z,6.90
2023-03-17T18:46:35.768Z,6.90
2023-03-17T18:49:03.972Z,6.90
2023-03-17T18:51:32.293Z,6.90
2023-03-17T18:54:00.703Z,6.90
2023-03-17T18:56:32.834Z,6.90
2023-03-17T18:59:01.112Z,6.80
2023-03-17T19:01:29.792Z,6.70
2023-03-17T19:03:58.015Z,6.70
2023-03-17T19:06:26.187Z,6.70
2023-03-17T19:08:54.409Z,6.60
2023-03-17T19:11:22.946Z,6.60
2023-03-17T19:13:52.996Z,6.60
2023-03-17T19:16:21.239Z,6.60
2023-03-17T19:18:49.438Z,6.50
2023-03-17T19:21:17.628Z,6.60
2023-03-17T19:23:45.769Z,6.50
2023-03-17T19:26:13.924Z,6.50
2023-03-17T19:28:42.921Z,6.50
2023-03-17T19:31:12.644Z,6.50
2023-03-17T19:33:41.014Z,6.50
2023-03-17T19:36:12.131Z,6.50
2023-03-17T19:38:41.108Z,6.50
2023-03-17T19:41:09.355Z,6.50
2023-03-17T19:43:41.196Z,6.40
2023-03-17T19:46:13.796Z,6.40
2023-03-17T19:48:42.061Z,6.50
2023-03-17T19:51:10.879Z,6.50
2023-03-17T19:53:39.264Z,6.40
2023-03-17T19:56:08.215Z,6.40
2023-03-17T19:58:36.412Z,6.30
2023-03-17T20:01:06.914Z,6.30
2023-03-17T20:03:39.924Z,6.30
2023-03-17T20:06:08.309Z,6.30
2023-03-17T20:08:37.932Z,6.30
2023-03-17T20:11:08.919Z,6.30
2023-03-17T20:13:38.100Z,6.30
2023-03-17T20:16:07.534Z,6.30
2023-03-17T20:18:40.291Z,6.30
2023-03-17T20:21:13.745Z,6.30
2023-03-17T20:23:42.042Z,6.20
2023-03-17T20:26:10.286Z,6.20
2023-03-17T20:28:38.776Z,6.20
2023-03-17T20:31:08.398Z,6.10
2023-03-17T20:33:40.741Z,6.10
2023-03-17T20:36:09.657Z,6.10
2023-03-17T20:38:39.003Z,6.10
2023-03-17T20:41:09.587Z,6.00
2023-03-17T20:43:38.351Z,6.00
2023-03-17T20:46:08.570Z,6.00
2023-03-17T20:48:37.365Z,6.00
2023-03-17T20:51:09.439Z,6.00
2023-03-17T20:53:40.416Z,6.00
2023-03-17T20:56:09.256Z,6.00
2023-03-17T20:58:40.238Z,6.00
2023-03-17T21:01:09.779Z,6.00
2023-03-17T21:03:41.294Z,6.00
2023-03-17T21:06:11.961Z,5.90
2023-03-17T21:08:40.475Z,6.00
2023-03-17T21:11:10.375Z,5.90
2023-03-17T21:13:42.899Z,5.90
2023-03-17T21:16:12.686Z,5.90
2023-03-17T21:18:40.741Z,5.90
2023-03-17T21:21:13.214Z,5.90
2023-03-17T21:23:44.752Z,5.90
2023-03-17T21:26:13.701Z,5.90
2023-03-17T21:28:43.137Z,5.90
2023-03-17T21:31:12.442Z,5.80
2023-03-17T21:33:45.363Z,5.80
2023-03-17T21:36:14.805Z,5.80
2023-03-17T21:38:43.870Z,5.80
2023-03-17T21:41:22.496Z,5.80
2023-03-17T21:43:50.878Z,5.80
2023-03-17T21:46:19.654Z,5.80
2023-03-17T21:48:48.555Z,5.80
2023-03-17T21:51:21.943Z,5.80
2023-03-17T21:53:50.838Z,5.80
2023-03-17T21:56:20.412Z,5.80
2023-03-17T21:58:49.067Z,5.80
2023-03-17T22:01:18.402Z,5.80
2023-03-17T22:03:50.956Z,5.80
2023-03-17T22:06:21.276Z,5.80
2023-03-17T22:08:50.871Z,5.80
2023-03-17T22:11:20.466Z,5.80
2023-03-17T22:13:49.315Z,5.80
2023-03-17T22:16:18.908Z,5.70
2023-03-17T22:18:47.411Z,5.70
2023-03-17T22:21:20.880Z,5.70
2023-03-17T22:23:52.378Z,5.70
2023-03-17T22:26:22.851Z,5.70
2023-03-17T22:28:51.332Z,5.70
2023-03-17T22:31:21.755Z,5.70
2023-03-17T22:33:53.316Z,5.70
2023-03-17T22:36:23.085Z,5.70
2023-03-17T22:38:51.790Z,5.70
2023-03-17T22:41:22.627Z,5.70
2023-03-17T22:43:54.101Z,5.70
2023-03-17T22:46:23.054Z,5.70
2023-03-17T22:48:51.979Z,5.70
2023-03-17T22:51:23.967Z,5.70
2023-03-17T22:53:52.922Z,5.60
2023-03-17T22:56:21.183Z,5.60
2023-03-17T22:58:50.590Z,5.60
2023-03-17T23:01:20.904Z,5.60
2023-03-17T23:03:48.986Z,5.60
2023-03-17T23:06:17.710Z,5.60
2023-03-17T23:08:48.126Z,5.60
2023-03-17T23:11:18.457Z,5.60
2023-03-17T23:13:48.992Z,5.60
2023-03-17T23:16:17.635Z,5.60
2023-03-17T23:18:47.011Z,5.50
2023-03-17T23:21:21.869Z,5.50
2023-03-17T23:23:51.468Z,5.50
2023-03-17T23:26:19.660Z,5.50
2023-03-17T23:28:54.984Z,5.50
2023-03-17T23:31:23.264Z,5.50
2023-03-17T23:33:51.750Z,5.50
2023-03-17T23:36:21.880Z,5.50
2023-03-17T23:38:52.242Z,5.50
2023-03-17T23:41:21.425Z,5.50
2023-03-17T23:43:49.752Z,5.50
2023-03-17T23:46:18.451Z,5.50
2023-03-17T23:48:46.901Z,5.50
2023-03-17T23:51:14.870Z,5.40
2023-03-17T23:53:50.145Z,5.50
2023-03-17T23:56:20.508Z,5.40
2023-03-17T23:58:49.946Z,5.40
